createdAt,value
2018-10-19T00:01:34.279Z,2.73
2018-10-19T00:04:02.881Z,3.00
2018-10-19T00:06:31.347Z,2.90
2018-10-19T00:08:59.848Z,2.90
2018-10-19T00:11:28.187Z,2.87
2018-10-19T00:13:56.777Z,2.70
2018-10-19T00:16:25.477Z,3.43
2018-10-19T00:18:53.931Z,2.90
2018-10-19T00:21:22.311Z,2.53
2018-10-19T00:23:50.698Z,3.00
2018-10-19T00:26:19.292Z,3.63
2018-10-19T00:28:47.968Z,3.47
2018-10-19T00:31:16.479Z,3.07
2018-10-19T00:33:44.854Z,3.17
2018-10-19T00:36:13.230Z,3.37
2018-10-19T00:38:41.836Z,3.50
2018-10-19T00:41:10.450Z,3.60
2018-10-19T00:43:38.763Z,3.23
2018-10-19T00:46:07.160Z,2.70
2018-10-19T00:48:35.752Z,3.00
2018-10-19T00:51:04.412Z,4.07
2018-10-19T00:53:32.783Z,3.70
2018-10-19T00:56:01.167Z,3.30
2018-10-19T00:58:29.555Z,3.43
2018-10-19T01:00:58.047Z,3.37
2018-10-19T01:03:26.419Z,3.70
2018-10-19T01:05:54.804Z,3.80
2018-10-19T01:08:23.398Z,3.40
2018-10-19T01:10:52.076Z,3.37
2018-10-19T01:13:20.746Z,3.40
2018-10-19T01:15:49.228Z,3.23
2018-10-19T01:18:17.598Z,3.80
2018-10-19T01:20:45.988Z,3.90
2018-10-19T01:23:14.471Z,3.10
2018-10-19T01:25:42.863Z,3.70
2018-10-19T01:28:11.819Z,3.53
2018-10-19T01:30:40.552Z,3.13
2018-10-19T01:33:09.046Z,3.50
2018-10-19T01:35:37.379Z,3.30
2018-10-19T01:38:05.777Z,3.27
2018-10-19T01:40:34.168Z,4.00
2018-10-19T01:43:02.623Z,3.17
2018-10-19T01:45:31.030Z,3.37
2018-10-19T01:47:59.621Z,3.50
2018-10-19T01:50:28.091Z,3.27
2018-10-19T01:52:56.609Z,3.90
2018-10-19T01:55:24.951Z,3.50
2018-10-19T01:57:53.323Z,3.40
2018-10-19T02:00:21.723Z,3.50
2018-10-19T02:02:50.163Z,3.47
2018-10-19T02:05:18.553Z,3.53
2018-10-19T02:07:46.939Z,3.23
2018-10-19T02:10:15.323Z,3.63
2018-10-19T02:12:43.920Z,3.30
2018-10-19T02:15:12.457Z,3.17
2018-10-19T02:17:40.774Z,3.57
2018-10-19T02:20:09.164Z,3.50
2018-10-19T02:22:37.978Z,3.80
2018-10-19T02:25:06.351Z,3.70
2018-10-19T02:27:34.744Z,3.80
2018-10-19T02:30:03.356Z,3.57
2018-10-19T02:32:31.738Z,2.90
2018-10-19T02:35:00.131Z,3.20
2018-10-19T02:37:28.559Z,3.30
2018-10-19T02:39:56.954Z,3.10
2018-10-19T02:42:25.640Z,3.47
2018-10-19T02:44:54.120Z,3.03
2018-10-19T02:47:22.514Z,3.23
2018-10-19T02:49:50.878Z,2.90
2018-10-19T02:52:24.331Z,2.97
2018-10-19T02:54:52.740Z,3.30
2018-10-19T02:57:21.132Z,3.33
2018-10-19T02:59:49.523Z,3.47
2018-10-19T03:02:18.224Z,3.00
2018-10-19T03:04:46.923Z,3.00
2018-10-19T03:07:15.598Z,3.20
2018-10-19T03:09:44.096Z,2.87
2018-10-19T03:12:12.575Z,4.33
2018-10-19T03:14:40.969Z,2.60
2018-10-19T03:17:09.601Z,3.47
2018-10-19T03:19:38.035Z,3.27
2018-10-19T03:22:06.431Z,3.07
2018-10-19T03:24:34.814Z,3.20
2018-10-19T03:27:05.663Z,2.90
2018-10-19T03:29:34.030Z,2.60
2018-10-19T03:32:02.399Z,3.30
2018-10-19T03:34:30.780Z,3.10
2018-10-19T03:36:59.383Z,3.10
2018-10-19T03:39:27.856Z,3.13
2018-10-19T03:41:56.312Z,3.50
2018-10-19T03:44:24.718Z,3.40
2018-10-19T03:46:53.096Z,3.30
2018-10-19T03:49:21.756Z,3.77
2018-10-19T03:51:50.232Z,3.93
2018-10-19T03:54:18.611Z,3.27
2018-10-19T03:56:47.183Z,3.60
2018-10-19T03:59:15.624Z,4.17
2018-10-19T04:01:44.059Z,4.00
2018-10-19T04:04:12.435Z,3.30
2018-10-19T04:06:40.855Z,3.83
2018-10-19T04:09:11.134Z,3.47
2018-10-19T04:11:39.615Z,4.33
2018-10-19T04:14:08.888Z,4.03
2018-10-19T04:16:37.262Z,3.90
2018-10-19T04:19:05.791Z,3.90
2018-10-19T04:21:34.349Z,3.50
2018-10-19T04:24:03.042Z,3.80
2018-10-19T04:26:31.736Z,3.67
2018-10-19T04:29:00.258Z,3.60
2018-10-19T04:31:28.591Z,3.33
2018-10-19T04:33:56.982Z,3.20
2018-10-19T04:36:25.419Z,3.53
2018-10-19T04:38:53.794Z,3.13
2018-10-19T04:41:27.300Z,3.80
2018-10-19T04:43:55.851Z,3.40
2018-10-19T04:46:24.332Z,3.77
2018-10-19T04:48:52.744Z,3.40
2018-10-19T04:51:21.169Z,3.90
2018-10-19T04:53:49.624Z,3.30
2018-10-19T04:56:17.966Z,3.80
2018-10-19T04:58:46.359Z,3.80
2018-10-19T05:01:14.777Z,3.73
2018-10-19T05:03:43.628Z,3.00
2018-10-19T05:06:12.480Z,3.03
2018-10-19T05:08:41.767Z,2.93
2018-10-19T05:11:10.357Z,3.53
2018-10-19T05:13:38.648Z,4.33
2018-10-19T05:16:07.033Z,3.80
2018-10-19T05:18:35.632Z,4.63
2018-10-19T05:21:04.232Z,4.20
2018-10-19T05:23:32.626Z,4.10
2018-10-19T05:26:01.301Z,4.60
2018-10-19T05:28:29.840Z,3.27
2018-10-19T05:30:58.311Z,3.77
2018-10-19T05:33:26.699Z,4.23
2018-10-19T05:35:55.090Z,4.30
2018-10-19T05:38:23.704Z,4.23
2018-10-19T05:40:52.445Z,4.30
2018-10-19T05:43:20.843Z,4.60
2018-10-19T05:45:49.172Z,4.73
2018-10-19T05:48:17.558Z,4.87
2018-10-19T05:50:45.947Z,4.50
2018-10-19T05:53:14.382Z,4.70
2018-10-19T05:55:42.734Z,5.23
2018-10-19T05:58:11.111Z,4.80
2018-10-19T06:00:39.735Z,5.10
2018-10-19T06:03:08.279Z,5.17
2018-10-19T06:05:36.672Z,5.60
2018-10-19T06:08:05.065Z,4.57
2018-10-19T06:10:33.446Z,4.50
2018-10-19T06:13:01.875Z,5.30
2018-10-19T06:15:30.272Z,5.03
2018-10-19T06:17:58.681Z,4.83
2018-10-19T06:20:27.042Z,5.27
2018-10-19T06:23:00.578Z,4.73
2018-10-19T06:25:29.124Z,5.43
2018-10-19T06:27:57.820Z,5.00
2018-10-19T06:30:26.299Z,4.47
2018-10-19T06:32:54.761Z,4.80
2018-10-19T06:35:23.166Z,4.57
2018-10-19T06:37:51.542Z,4.60
2018-10-19T06:40:19.924Z,4.90
2018-10-19T06:42:48.364Z,4.80
2018-10-19T06:45:16.708Z,4.70
2018-10-19T06:47:45.308Z,5.13
2018-10-19T06:50:13.823Z,5.07
2018-10-19T06:52:42.351Z,4.73
2018-10-19T06:55:13.091Z,4.20
2018-10-19T06:57:41.472Z,4.33
2018-10-19T07:00:09.985Z,5.07
2018-10-19T07:02:38.476Z,4.37
2018-10-19T07:05:06.915Z,4.17
2018-10-19T07:07:35.726Z,4.80
2018-10-19T07:10:04.528Z,4.43
2018-10-19T07:12:32.998Z,3.97
2018-10-19T07:15:01.391Z,5.07
2018-10-19T07:17:30.066Z,4.87
2018-10-19T07:19:58.552Z,4.33
2018-10-19T07:22:26.954Z,4.77
2018-10-19T07:24:55.350Z,4.53
2018-10-19T07:27:23.730Z,4.60
2018-10-19T07:29:52.335Z,4.20
2018-10-19T07:32:20.750Z,4.13
2018-10-19T07:34:49.136Z,4.50
2018-10-19T07:37:17.736Z,4.67
2018-10-19T07:39:46.258Z,4.70
2018-10-19T07:42:14.704Z,4.63
2018-10-19T07:44:43.288Z,3.90
2018-10-19T07:47:12.011Z,4.07
2018-10-19T07:49:40.456Z,4.60
2018-10-19T07:52:08.858Z,4.60
2018-10-19T07:54:37.342Z,4.27
2018-10-19T07:57:05.663Z,4.00
2018-10-19T07:59:34.275Z,4.10
2018-10-19T08:02:02.899Z,4.03
2018-10-19T08:04:31.457Z,4.30
2018-10-19T08:06:59.943Z,3.83
2018-10-19T08:09:28.322Z,4.20
2018-10-19T08:11:56.766Z,3.97
2018-10-19T08:14:25.398Z,3.90
2018-10-19T08:16:54.095Z,3.77
2018-10-19T08:19:22.551Z,3.37
2018-10-19T08:21:51.443Z,4.40
2018-10-19T08:24:19.918Z,3.83
2018-10-19T08:26:48.291Z,2.83
2018-10-19T08:29:31.422Z,3.50
2018-10-19T08:31:59.896Z,2.83
2018-10-19T08:34:28.279Z,3.67
2018-10-19T08:36:56.675Z,4.37
2018-10-19T08:39:25.071Z,3.80
2018-10-19T08:41:53.671Z,3.77
2018-10-19T08:44:22.555Z,4.03
2018-10-19T08:46:51.147Z,3.30
2018-10-19T08:49:19.858Z,3.17
2018-10-19T08:51:48.367Z,2.57
2018-10-19T08:54:16.751Z,3.47
2018-10-19T08:56:45.139Z,3.03
2018-10-19T08:59:13.843Z,3.07
2018-10-19T09:01:42.276Z,2.37
2018-10-19T09:04:10.757Z,2.60
2018-10-19T09:06:39.354Z,2.47
2018-10-19T09:09:09.298Z,2.10
2018-10-19T09:11:38.128Z,2.03
2018-10-19T09:14:12.282Z,1.90
2018-10-19T09:16:40.880Z,1.70
2018-10-19T09:19:09.613Z,1.80
2018-10-19T09:21:38.422Z,2.37
2018-10-19T09:24:06.888Z,2.60
2018-10-19T09:26:35.493Z,2.43
2018-10-19T09:29:05.206Z,2.50
2018-10-19T09:31:33.835Z,2.20
2018-10-19T09:34:02.553Z,1.80
2018-10-19T09:36:31.693Z,2.00
2018-10-19T09:39:00.250Z,2.10
2018-10-19T09:41:28.693Z,1.95
2018-10-19T09:43:57.061Z,2.10
2018-10-19T09:46:25.451Z,2.15
2018-10-19T09:48:54.101Z,1.98
2018-10-19T09:51:22.574Z,1.87
2018-10-19T09:53:51.175Z,2.05
2018-10-19T09:56:19.907Z,1.70
2018-10-19T09:58:48.559Z,1.80
2018-10-19T10:01:22.522Z,2.00
2018-10-19T10:03:51.255Z,2.30
2018-10-19T10:06:19.935Z,2.30
2018-10-19T10:08:48.437Z,2.30
2018-10-19T10:11:16.896Z,2.17
2018-10-19T10:13:45.493Z,2.20
2018-10-19T10:16:13.962Z,1.90
2018-10-19T10:18:42.359Z,2.17
2018-10-19T10:21:10.804Z,2.13
2018-10-19T10:23:39.410Z,1.93
2018-10-19T10:26:08.072Z,2.10
2018-10-19T10:28:36.450Z,1.83
2018-10-19T10:31:05.306Z,2.10
2018-10-19T10:33:33.864Z,2.30
2018-10-19T10:36:02.540Z,2.00
2018-10-19T10:38:31.040Z,2.00
2018-10-19T10:40:59.749Z,2.30
2018-10-19T10:43:28.227Z,2.20
2018-10-19T10:45:56.654Z,2.00
2018-10-19T10:48:25.115Z,2.17
2018-10-19T10:50:58.194Z,1.70
2018-10-19T10:53:41.136Z,2.10
2018-10-19T10:56:09.583Z,2.43
2018-10-19T10:58:38.180Z,1.80
2018-10-19T11:01:11.753Z,2.00
2018-10-19T11:03:40.331Z,2.00
2018-10-19T11:06:08.807Z,2.10
2018-10-19T11:08:37.440Z,2.47
2018-10-19T11:11:08.818Z,1.93
2018-10-19T11:13:38.056Z,1.97
2018-10-19T11:16:06.957Z,1.90
2018-10-19T11:18:35.775Z,1.63
2018-10-19T11:21:04.888Z,1.90
2018-10-19T11:23:33.575Z,2.10
2018-10-19T11:26:02.300Z,1.80
2018-10-19T11:28:34.180Z,2.30
2018-10-19T11:31:03.104Z,2.10
2018-10-19T11:33:31.464Z,2.03
2018-10-19T11:36:00.088Z,2.23
2018-10-19T11:38:28.559Z,2.43
2018-10-19T11:40:57.024Z,2.30
2018-10-19T11:43:25.664Z,2.10
2018-10-19T11:45:54.350Z,1.83
2018-10-19T11:48:22.819Z,2.33
2018-10-19T11:50:51.448Z,2.03
2018-10-19T11:53:20.144Z,2.23
2018-10-19T11:55:48.723Z,1.97
2018-10-19T11:58:17.224Z,2.07
2018-10-19T12:00:45.723Z,1.87
2018-10-19T12:03:14.212Z,2.07
2018-10-19T12:05:43.210Z,2.30
2018-10-19T12:08:11.813Z,2.10
2018-10-19T12:10:40.538Z,2.03
2018-10-19T12:13:09.209Z,2.07
2018-10-19T12:15:37.568Z,1.93
2018-10-19T12:18:05.935Z,1.80
2018-10-19T12:20:34.543Z,2.10
2018-10-19T12:23:03.040Z,2.10
2018-10-19T12:25:31.636Z,1.87
2018-10-19T12:28:00.338Z,2.40
2018-10-19T12:30:28.807Z,1.90
2018-10-19T12:32:57.585Z,2.17
2018-10-19T12:35:26.093Z,2.30
2018-10-19T12:37:54.411Z,1.97
2018-10-19T12:40:22.802Z,2.30
2018-10-19T12:42:51.214Z,2.07
2018-10-19T12:46:32.004Z,2.17
2018-10-19T12:49:00.506Z,1.80
2018-10-19T12:51:28.952Z,2.27
2018-10-19T12:53:57.630Z,2.27
2018-10-19T12:56:26.519Z,2.20
2018-10-19T12:58:55.521Z,2.10
2018-10-19T13:01:25.065Z,1.80
2018-10-19T13:03:53.509Z,2.10
2018-10-19T13:06:22.232Z,2.07
2018-10-19T13:08:51.035Z,1.80
2018-10-19T13:11:19.676Z,2.00
2018-10-19T13:13:48.984Z,2.10
2018-10-19T13:16:17.761Z,1.77
2018-10-19T13:18:46.335Z,1.70
2018-10-19T13:21:14.906Z,2.20
2018-10-19T13:23:43.443Z,1.87
2018-10-19T13:26:11.878Z,1.70
2018-10-19T13:28:41.234Z,1.80
2018-10-19T13:31:09.722Z,2.30
2018-10-19T13:33:38.123Z,2.07
2018-10-19T13:36:06.599Z,2.20
2018-10-19T13:38:34.941Z,1.87
2018-10-19T13:41:03.339Z,1.87
2018-10-19T13:43:31.948Z,2.50
2018-10-19T13:46:00.629Z,2.00
2018-10-19T13:48:29.344Z,2.10
2018-10-19T13:50:58.093Z,1.93
2018-10-19T13:53:26.512Z,1.90
2018-10-19T13:55:54.918Z,2.53
2018-10-19T13:58:23.364Z,2.13
2018-10-19T14:00:51.922Z,1.90
2018-10-19T14:03:20.406Z,1.97
2018-10-19T14:05:48.855Z,2.33
2018-10-19T14:08:17.224Z,2.00
2018-10-19T14:10:45.822Z,1.90
2018-10-19T14:13:14.287Z,1.87
2018-10-19T14:15:42.684Z,1.93
2018-10-19T14:18:11.074Z,1.93
2018-10-19T14:20:39.472Z,1.47
2018-10-19T14:23:08.147Z,2.00
2018-10-19T14:25:36.563Z,2.07
2018-10-19T14:28:05.192Z,1.70
2018-10-19T14:30:33.576Z,1.67
2018-10-19T14:33:02.270Z,1.90
2018-10-19T14:35:30.686Z,2.40
2018-10-19T14:37:59.063Z,2.40
2018-10-19T14:40:27.460Z,1.90
2018-10-19T14:42:55.840Z,1.80
2018-10-19T14:45:24.444Z,1.90
2018-10-19T14:47:52.923Z,2.00
2018-10-19T14:50:21.299Z,2.40
2018-10-19T14:52:49.779Z,2.20
2018-10-19T14:55:19.167Z,1.83
2018-10-19T14:57:47.642Z,2.00
2018-10-19T15:00:17.295Z,1.80
2018-10-19T15:02:45.806Z,1.73
2018-10-19T15:05:16.007Z,1.90
2018-10-19T15:07:44.407Z,2.10
2018-10-19T15:10:14.624Z,1.93
2018-10-19T15:12:43.135Z,1.87
2018-10-19T15:15:13.002Z,1.90
2018-10-19T15:17:41.399Z,1.60
2018-10-19T15:20:09.878Z,1.53
2018-10-19T15:22:43.679Z,1.80
2018-10-19T15:25:12.351Z,2.10
2018-10-19T15:27:41.958Z,2.40
2018-10-19T15:30:11.763Z,1.67
2018-10-19T15:32:40.215Z,1.30
2018-10-19T15:35:09.047Z,1.70
2018-10-19T15:37:37.431Z,1.80
2018-10-19T15:40:06.079Z,1.60
2018-10-19T15:42:34.732Z,1.60
2018-10-19T15:45:03.339Z,2.03
2018-10-19T15:47:32.887Z,1.63
2018-10-19T15:50:01.501Z,2.10
2018-10-19T15:52:30.206Z,1.67
2018-10-19T15:54:58.663Z,1.80
2018-10-19T15:57:27.098Z,1.53
2018-10-19T15:59:55.491Z,2.20
2018-10-19T16:02:24.040Z,2.13
2018-10-19T16:04:52.515Z,2.83
2018-10-19T16:07:20.915Z,2.70
2018-10-19T16:09:49.297Z,3.30
2018-10-19T16:12:17.887Z,2.67
2018-10-19T16:14:46.595Z,2.63
2018-10-19T16:17:15.103Z,2.33
2018-10-19T16:19:43.714Z,2.30
2018-10-19T16:22:17.468Z,2.00
2018-10-19T16:24:45.848Z,1.80
2018-10-19T16:27:14.617Z,2.03
2018-10-19T16:29:42.922Z,1.80
2018-10-19T16:32:11.363Z,2.37
2018-10-19T16:34:39.757Z,2.83
2018-10-19T16:37:08.355Z,2.20
2018-10-19T16:39:36.819Z,2.30
2018-10-19T16:42:10.356Z,2.17
2018-10-19T16:44:38.700Z,2.23
2018-10-19T16:47:07.119Z,2.40
2018-10-19T16:49:35.511Z,2.50
2018-10-19T16:52:04.276Z,2.60
2018-10-19T16:54:32.592Z,2.53
2018-10-19T16:57:01.012Z,2.33
2018-10-19T16:59:29.363Z,2.67
2018-10-19T17:01:57.843Z,3.07
2018-10-19T17:04:26.460Z,3.10
2018-10-19T17:06:54.922Z,3.77
2018-10-19T17:09:23.524Z,4.07
2018-10-19T17:11:52.019Z,6.77
2018-10-19T17:14:20.402Z,5.57
2018-10-19T17:16:48.816Z,7.57
2018-10-19T17:19:17.277Z,12.17
2018-10-19T17:21:45.632Z,13.60
2018-10-19T17:24:14.019Z,11.67
2018-10-19T17:26:42.610Z,6.93
2018-10-19T17:29:11.192Z,4.77
2018-10-19T17:31:39.520Z,4.10
2018-10-19T17:34:07.892Z,4.03
2018-10-19T17:36:36.504Z,2.93
2018-10-19T17:39:06.533Z,2.60
2018-10-19T17:41:34.998Z,3.00
2018-10-19T17:44:03.596Z,2.60
2018-10-19T17:46:32.271Z,3.17
2018-10-19T17:49:01.014Z,4.00
2018-10-19T17:51:29.435Z,4.40
2018-10-19T17:53:57.853Z,3.43
2018-10-19T17:56:26.223Z,3.80
2018-10-19T17:58:54.606Z,4.60
2018-10-19T18:01:28.083Z,4.30
2018-10-19T18:03:56.680Z,4.03
2018-10-19T18:06:25.139Z,4.27
2018-10-19T18:08:53.607Z,4.80
2018-10-19T18:11:22.046Z,5.27
2018-10-19T18:13:50.596Z,5.40
2018-10-19T18:16:19.132Z,5.17
2018-10-19T18:18:47.860Z,4.80
2018-10-19T18:21:21.681Z,4.60
2018-10-19T18:23:50.203Z,3.70
2018-10-19T18:26:18.515Z,3.30
2018-10-19T18:28:46.930Z,3.90
2018-10-19T18:31:15.547Z,3.93
2018-10-19T18:33:44.224Z,3.67
2018-10-19T18:36:12.703Z,3.37
2018-10-19T18:38:41.089Z,3.27
2018-10-19T18:41:09.538Z,3.63
2018-10-19T18:43:38.087Z,3.37
2018-10-19T18:46:06.580Z,2.70
2018-10-19T18:48:34.959Z,3.03
2018-10-19T18:51:03.363Z,2.73
2018-10-19T18:53:32.023Z,2.70
2018-10-19T18:56:00.754Z,2.70
2018-10-19T18:58:29.204Z,3.60
2018-10-19T19:00:57.593Z,3.20
2018-10-19T19:03:26.048Z,3.67
2018-10-19T19:05:54.658Z,3.33
2018-10-19T19:08:23.114Z,3.37
2018-10-19T19:10:51.486Z,3.03
2018-10-19T19:13:25.308Z,3.27
2018-10-19T19:15:53.899Z,3.40
2018-10-19T19:18:22.372Z,3.30
2018-10-19T19:20:50.823Z,3.77
2018-10-19T19:23:19.191Z,3.60
2018-10-19T19:25:53.039Z,3.70
2018-10-19T19:28:21.428Z,4.03
2018-10-19T19:30:50.059Z,3.60
2018-10-19T19:33:24.063Z,4.00
2018-10-19T19:35:52.673Z,4.40
2018-10-19T19:38:21.129Z,4.50
2018-10-19T19:40:55.073Z,4.73
2018-10-19T19:43:23.455Z,6.97
2018-10-19T19:45:51.844Z,7.30
2018-10-19T19:48:25.675Z,8.63
2018-10-19T19:50:54.060Z,8.70
2018-10-19T19:53:22.448Z,8.13
2018-10-19T19:55:50.831Z,7.53
2018-10-19T19:58:19.220Z,7.20
2018-10-19T20:00:47.622Z,6.77
2018-10-19T20:03:16.015Z,7.80
2018-10-19T20:05:44.608Z,8.27
2018-10-19T20:08:13.168Z,9.20
2018-10-19T20:10:41.512Z,7.43
2018-10-19T20:13:09.952Z,4.90
2018-10-19T20:15:38.543Z,4.33
2018-10-19T20:18:07.080Z,4.60
2018-10-19T20:20:35.409Z,3.60
2018-10-19T20:23:03.823Z,3.93
2018-10-19T20:25:32.392Z,3.43
2018-10-19T20:28:00.890Z,3.60
2018-10-19T20:30:29.268Z,3.60
2018-10-19T20:32:57.664Z,4.23
2018-10-19T20:35:26.068Z,5.13
2018-10-19T20:37:54.485Z,7.63
2018-10-19T20:40:22.847Z,6.57
2018-10-19T20:42:51.257Z,6.43
2018-10-19T20:45:19.855Z,7.13
2018-10-19T20:47:48.584Z,7.03
2018-10-19T20:50:17.131Z,6.90
2018-10-19T20:52:50.728Z,6.37
2018-10-19T20:55:19.145Z,6.63
2018-10-19T20:57:47.695Z,6.27
2018-10-19T21:00:16.395Z,6.40
2018-10-19T21:02:44.913Z,5.90
2018-10-19T21:05:13.384Z,6.70
2018-10-19T21:07:41.793Z,6.00
2018-10-19T21:10:11.505Z,5.93
2018-10-19T21:12:40.136Z,5.40
2018-10-19T21:15:10.539Z,4.07
2018-10-19T21:17:39.239Z,4.10
2018-10-19T21:20:08.580Z,4.10
2018-10-19T21:22:37.135Z,3.37
2018-10-19T21:25:05.975Z,3.53
2018-10-19T21:27:34.401Z,3.07
2018-10-19T21:30:02.862Z,3.27
2018-10-19T21:32:31.286Z,3.57
2018-10-19T21:34:59.700Z,3.40
2018-10-19T21:37:28.068Z,3.60
2018-10-19T21:39:56.448Z,3.27
2018-10-19T21:42:24.871Z,3.33
2018-10-19T21:44:53.264Z,3.50
2018-10-19T21:47:21.643Z,4.03
2018-10-19T21:49:50.023Z,3.60
2018-10-19T21:52:18.687Z,3.27
2018-10-19T21:54:47.077Z,3.27
2018-10-19T21:57:15.472Z,2.90
2018-10-19T21:59:43.857Z,3.40
2018-10-19T22:02:12.313Z,3.13
2018-10-19T22:04:40.840Z,3.30
2018-10-19T22:07:09.358Z,2.67
2018-10-19T22:09:37.735Z,3.23
2018-10-19T22:12:06.179Z,3.27
2018-10-19T22:14:34.788Z,2.87
2018-10-19T22:17:03.305Z,3.23
2018-10-19T22:19:31.636Z,3.10
2018-10-19T22:22:00.139Z,3.20
2018-10-19T22:24:28.546Z,4.03
2018-10-19T22:26:56.927Z,3.63
2018-10-19T22:29:25.328Z,4.60
2018-10-19T22:31:54.029Z,5.33
2018-10-19T22:34:22.496Z,4.27
2018-10-19T22:36:50.899Z,4.23
2018-10-19T22:39:19.267Z,4.50
2018-10-19T22:41:47.643Z,4.43
2018-10-19T22:44:16.048Z,4.50
2018-10-19T22:46:44.423Z,4.60
2018-10-19T22:49:12.868Z,4.20
2018-10-19T22:51:41.223Z,4.37
2018-10-19T22:54:09.624Z,4.43
2018-10-19T22:56:38.024Z,3.60
2018-10-19T22:59:06.650Z,4.30
2018-10-19T23:01:35.100Z,4.50
2018-10-19T23:04:03.490Z,3.97
2018-10-19T23:06:31.925Z,4.33
2018-10-19T23:09:00.561Z,4.70
2018-10-19T23:11:29.160Z,4.80
2018-10-19T23:13:57.538Z,4.33
2018-10-19T23:16:25.916Z,4.00
2018-10-19T23:18:54.526Z,4.40
2018-10-19T23:21:23.021Z,4.47
2018-10-19T23:23:51.401Z,3.90
2018-10-19T23:26:19.784Z,4.20
2018-10-19T23:28:48.182Z,3.53
2018-10-19T23:31:16.707Z,3.83
2018-10-19T23:33:44.955Z,4.07
2018-10-19T23:36:13.644Z,3.57
2018-10-19T23:38:42.023Z,3.73
2018-10-19T23:41:10.410Z,4.00
2018-10-19T23:43:38.823Z,3.60
2018-10-19T23:46:07.179Z,4.43
2018-10-19T23:48:35.764Z,3.70
2018-10-19T23:51:04.467Z,3.63
2018-10-19T23:53:32.946Z,4.03
2018-10-19T23:56:01.315Z,4.10
2018-10-19T23:58:29.711Z,4.50
